sensor_id;sensor_type;location;lat;lon;timestamp;P1;durP1;ratioP1;P2;durP2;ratioP2
61085;SDS011;46967;48.876;2.136;2022-07-01T00:01:35;2.63;;;1.00;;
61085;SDS011;46967;48.876;2.136;2022-07-01T00:04:02;3.95;;;0.95;;
61085;SDS011;46967;48.876;2.136;2022-07-01T00:06:27;3.30;;;1.10;;
61085;SDS011;46967;48.876;2.136;2022-07-01T00:08:53;9.55;;;0.90;;
61085;SDS011;46967;48.876;2.136;2022-07-01T00:11:18;1.55;;;0.85;;
61085;SDS011;46967;48.876;2.136;2022-07-01T00:13:43;3.47;;;0.60;;
61085;SDS011;46967;48.876;2.136;2022-07-01T00:16:09;2.08;;;0.82;;
61085;SDS011;46967;48.876;2.136;2022-07-01T00:18:34;2.28;;;0.93;;
61085;SDS011;46967;48.876;2.136;2022-07-01T00:21:00;2.60;;;0.70;;
61085;SDS011;46967;48.876;2.136;2022-07-01T00:23:28;3.75;;;1.27;;
61085;SDS011;46967;48.876;2.136;2022-07-01T00:25:54;1.65;;;1.00;;
61085;SDS011;46967;48.876;2.136;2022-07-01T00:28:19;1.77;;;0.60;;
61085;SDS011;46967;48.876;2.136;2022-07-01T00:30:45;3.63;;;0.80;;
61085;SDS011;46967;48.876;2.136;2022-07-01T00:33:10;0.88;;;0.60;;
61085;SDS011;46967;48.876;2.136;2022-07-01T00:35:35;1.67;;;0.70;;
61085;SDS011;46967;48.876;2.136;2022-07-01T00:38:01;2.85;;;1.38;;
61085;SDS011;46967;48.876;2.136;2022-07-01T00:40:26;2.58;;;0.80;;
61085;SDS011;46967;48.876;2.136;2022-07-01T00:42:52;1.27;;;0.73;;
61085;SDS011;46967;48.876;2.136;2022-07-01T00:45:17;3.72;;;0.85;;
61085;SDS011;46967;48.876;2.136;2022-07-01T00:47:44;2.45;;;0.80;;
61085;SDS011;46967;48.876;2.136;2022-07-01T00:50:11;2.83;;;0.70;;
61085;SDS011;46967;48.876;2.136;2022-07-01T00:52:39;1.23;;;0.60;;
61085;SDS011;46967;48.876;2.136;2022-07-01T00:55:06;2.72;;;0.60;;
61085;SDS011;46967;48.876;2.136;2022-07-01T00:57:34;4.40;;;0.68;;
61085;SDS011;46967;48.876;2.136;2022-07-01T01:00:03;3.47;;;1.25;;
61085;SDS011;46967;48.876;2.136;2022-07-01T01:02:30;1.45;;;0.93;;
61085;SDS011;46967;48.876;2.136;2022-07-01T01:04:55;1.58;;;0.75;;
61085;SDS011;46967;48.876;2.136;2022-07-01T01:07:21;2.85;;;0.90;;
61085;SDS011;46967;48.876;2.136;2022-07-01T01:09:46;3.08;;;0.70;;
61085;SDS011;46967;48.876;2.136;2022-07-01T01:12:12;2.42;;;0.98;;
61085;SDS011;46967;48.876;2.136;2022-07-01T01:14:49;1.67;;;1.00;;
61085;SDS011;46967;48.876;2.136;2022-07-01T01:17:15;2.88;;;0.80;;
61085;SDS011;46967;48.876;2.136;2022-07-01T01:19:42;2.25;;;0.65;;
61085;SDS011;46967;48.876;2.136;2022-07-01T01:22:08;1.90;;;0.73;;
61085;SDS011;46967;48.876;2.136;2022-07-01T01:24:34;4.30;;;0.93;;
61085;SDS011;46967;48.876;2.136;2022-07-01T01:27:01;4.03;;;0.80;;
61085;SDS011;46967;48.876;2.136;2022-07-01T01:29:27;4.10;;;1.00;;
61085;SDS011;46967;48.876;2.136;2022-07-01T01:31:52;3.10;;;1.40;;
61085;SDS011;46967;48.876;2.136;2022-07-01T01:34:18;3.88;;;0.77;;
61085;SDS011;46967;48.876;2.136;2022-07-01T01:36:43;2.20;;;0.90;;
61085;SDS011;46967;48.876;2.136;2022-07-01T01:39:08;2.47;;;0.80;;
61085;SDS011;46967;48.876;2.136;2022-07-01T01:41:37;1.95;;;0.80;;
61085;SDS011;46967;48.876;2.136;2022-07-01T01:44:02;2.65;;;0.70;;
61085;SDS011;46967;48.876;2.136;2022-07-01T01:46:28;2.47;;;0.80;;
61085;SDS011;46967;48.876;2.136;2022-07-01T01:48:55;1.20;;;0.75;;
61085;SDS011;46967;48.876;2.136;2022-07-01T01:51:20;2.88;;;0.70;;
61085;SDS011;46967;48.876;2.136;2022-07-01T01:53:46;3.15;;;0.80;;
61085;SDS011;46967;48.876;2.136;2022-07-01T01:56:12;3.20;;;0.80;;
61085;SDS011;46967;48.876;2.136;2022-07-01T01:58:37;2.15;;;0.60;;
61085;SDS011;46967;48.876;2.136;2022-07-01T02:01:07;1.23;;;0.75;;
61085;SDS011;46967;48.876;2.136;2022-07-01T02:03:37;3.13;;;1.00;;
61085;SDS011;46967;48.876;2.136;2022-07-01T02:06:03;3.78;;;1.00;;
61085;SDS011;46967;48.876;2.136;2022-07-01T02:08:30;2.90;;;0.90;;
61085;SDS011;46967;48.876;2.136;2022-07-01T02:10:56;2.75;;;0.90;;
61085;SDS011;46967;48.876;2.136;2022-07-01T02:13:22;1.58;;;0.80;;
61085;SDS011;46967;48.876;2.136;2022-07-01T02:15:47;2.35;;;1.00;;
61085;SDS011;46967;48.876;2.136;2022-07-01T02:18:14;4.15;;;0.98;;
61085;SDS011;46967;48.876;2.136;2022-07-01T02:20:40;3.63;;;0.90;;
61085;SDS011;46967;48.876;2.136;2022-07-01T02:23:06;2.20;;;0.95;;
61085;SDS011;46967;48.876;2.136;2022-07-01T02:25:32;1.63;;;0.70;;
61085;SDS011;46967;48.876;2.136;2022-07-01T02:27:57;2.05;;;0.85;;
61085;SDS011;46967;48.876;2.136;2022-07-01T02:30:23;0.85;;;0.60;;
61085;SDS011;46967;48.876;2.136;2022-07-01T02:32:49;2.03;;;0.98;;
61085;SDS011;46967;48.876;2.136;2022-07-01T02:35:14;2.33;;;0.90;;
61085;SDS011;46967;48.876;2.136;2022-07-01T02:37:39;3.22;;;0.88;;
61085;SDS011;46967;48.876;2.136;2022-07-01T02:40:05;2.03;;;1.10;;
61085;SDS011;46967;48.876;2.136;2022-07-01T02:42:30;4.53;;;0.60;;
61085;SDS011;46967;48.876;2.136;2022-07-01T02:45:00;1.73;;;0.80;;
61085;SDS011;46967;48.876;2.136;2022-07-01T02:47:34;2.10;;;1.20;;
61085;SDS011;46967;48.876;2.136;2022-07-01T02:50:00;4.65;;;1.10;;
61085;SDS011;46967;48.876;2.136;2022-07-01T02:52:26;1.08;;;0.80;;
61085;SDS011;46967;48.876;2.136;2022-07-01T02:54:52;1.85;;;0.65;;
61085;SDS011;46967;48.876;2.136;2022-07-01T02:57:18;2.90;;;0.90;;
61085;SDS011;46967;48.876;2.136;2022-07-01T02:59:43;0.88;;;0.70;;
61085;SDS011;46967;48.876;2.136;2022-07-01T03:02:08;2.70;;;0.80;;
61085;SDS011;46967;48.876;2.136;2022-07-01T03:04:34;2.10;;;1.05;;
61085;SDS011;46967;48.876;2.136;2022-07-01T03:06:59;1.85;;;0.90;;
61085;SDS011;46967;48.876;2.136;2022-07-01T03:09:24;3.22;;;0.90;;
61085;SDS011;46967;48.876;2.136;2022-07-01T03:11:50;1.90;;;0.95;;
61085;SDS011;46967;48.876;2.136;2022-07-01T03:14:15;2.10;;;1.30;;
61085;SDS011;46967;48.876;2.136;2022-07-01T03:16:41;3.20;;;1.20;;
61085;SDS011;46967;48.876;2.136;2022-07-01T03:19:06;3.72;;;0.75;;
61085;SDS011;46967;48.876;2.136;2022-07-01T03:21:32;4.18;;;0.90;;
61085;SDS011;46967;48.876;2.136;2022-07-01T03:23:58;3.38;;;0.90;;
61085;SDS011;46967;48.876;2.136;2022-07-01T03:26:23;3.90;;;1.08;;
61085;SDS011;46967;48.876;2.136;2022-07-01T03:28:49;2.38;;;0.73;;
61085;SDS011;46967;48.876;2.136;2022-07-01T03:31:14;5.82;;;1.30;;
61085;SDS011;46967;48.876;2.136;2022-07-01T03:33:39;5.03;;;0.90;;
61085;SDS011;46967;48.876;2.136;2022-07-01T03:36:05;3.92;;;1.08;;
61085;SDS011;46967;48.876;2.136;2022-07-01T03:38:30;2.83;;;0.70;;
61085;SDS011;46967;48.876;2.136;2022-07-01T03:40:56;4.72;;;0.90;;
61085;SDS011;46967;48.876;2.136;2022-07-01T03:43:21;4.57;;;0.98;;
61085;SDS011;46967;48.876;2.136;2022-07-01T03:45:46;4.03;;;0.80;;
61085;SDS011;46967;48.876;2.136;2022-07-01T03:48:12;3.05;;;0.60;;
61085;SDS011;46967;48.876;2.136;2022-07-01T03:50:37;3.55;;;0.80;;
61085;SDS011;46967;48.876;2.136;2022-07-01T03:53:03;2.88;;;0.90;;
61085;SDS011;46967;48.876;2.136;2022-07-01T03:55:47;3.92;;;0.70;;
61085;SDS011;46967;48.876;2.136;2022-07-01T03:58:12;4.95;;;1.00;;
61085;SDS011;46967;48.876;2.136;2022-07-01T04:00:38;3.22;;;0.88;;
61085;SDS011;46967;48.876;2.136;2022-07-01T04:03:05;2.53;;;0.75;;
61085;SDS011;46967;48.876;2.136;2022-07-01T04:05:32;2.13;;;0.75;;
61085;SDS011;46967;48.876;2.136;2022-07-01T04:07:59;2.35;;;0.60;;
61085;SDS011;46967;48.876;2.136;2022-07-01T04:10:25;5.25;;;0.82;;
61085;SDS011;46967;48.876;2.136;2022-07-01T04:12:51;4.00;;;0.88;;
61085;SDS011;46967;48.876;2.136;2022-07-01T04:15:16;4.85;;;0.90;;
61085;SDS011;46967;48.876;2.136;2022-07-01T04:17:42;3.30;;;0.70;;
61085;SDS011;46967;48.876;2.136;2022-07-01T04:20:08;3.95;;;0.80;;
61085;SDS011;46967;48.876;2.136;2022-07-01T04:22:34;7.32;;;1.77;;
61085;SDS011;46967;48.876;2.136;2022-07-01T04:25:01;3.22;;;0.80;;
61085;SDS011;46967;48.876;2.136;2022-07-01T04:27:29;1.83;;;0.68;;
61085;SDS011;46967;48.876;2.136;2022-07-01T04:29:54;1.95;;;0.70;;
61085;SDS011;46967;48.876;2.136;2022-07-01T04:32:20;6.03;;;1.02;;
61085;SDS011;46967;48.876;2.136;2022-07-01T04:34:45;6.05;;;0.80;;
61085;SDS011;46967;48.876;2.136;2022-07-01T04:37:10;7.88;;;1.00;;
61085;SDS011;46967;48.876;2.136;2022-07-01T04:39:37;7.05;;;0.80;;
61085;SDS011;46967;48.876;2.136;2022-07-01T04:42:02;5.65;;;0.80;;
61085;SDS011;46967;48.876;2.136;2022-07-01T04:44:29;9.07;;;0.82;;
61085;SDS011;46967;48.876;2.136;2022-07-01T04:46:56;4.68;;;0.90;;
61085;SDS011;46967;48.876;2.136;2022-07-01T04:49:22;3.80;;;0.90;;
61085;SDS011;46967;48.876;2.136;2022-07-01T04:51:48;4.82;;;0.80;;
61085;SDS011;46967;48.876;2.136;2022-07-01T04:54:13;7.90;;;1.10;;
61085;SDS011;46967;48.876;2.136;2022-07-01T04:56:39;3.50;;;0.93;;
61085;SDS011;46967;48.876;2.136;2022-07-01T04:59:04;5.03;;;0.80;;
61085;SDS011;46967;48.876;2.136;2022-07-01T05:01:30;7.40;;;0.88;;
61085;SDS011;46967;48.876;2.136;2022-07-01T05:03:56;5.72;;;0.90;;
61085;SDS011;46967;48.876;2.136;2022-07-01T05:06:22;4.97;;;0.70;;
61085;SDS011;46967;48.876;2.136;2022-07-01T05:08:48;3.05;;;0.63;;
61085;SDS011;46967;48.876;2.136;2022-07-01T05:11:13;5.97;;;0.82;;
61085;SDS011;46967;48.876;2.136;2022-07-01T05:13:38;4.95;;;0.80;;
61085;SDS011;46967;48.876;2.136;2022-07-01T05:16:04;3.88;;;1.10;;
61085;SDS011;46967;48.876;2.136;2022-07-01T05:18:30;7.75;;;0.90;;
61085;SDS011;46967;48.876;2.136;2022-07-01T05:21:14;5.60;;;1.10;;
61085;SDS011;46967;48.876;2.136;2022-07-01T05:23:58;7.25;;;1.30;;
61085;SDS011;46967;48.876;2.136;2022-07-01T05:26:24;2.10;;;0.65;;
61085;SDS011;46967;48.876;2.136;2022-07-01T05:28:51;6.50;;;1.00;;
61085;SDS011;46967;48.876;2.136;2022-07-01T05:31:18;5.43;;;0.88;;
61085;SDS011;46967;48.876;2.136;2022-07-01T05:33:43;5.18;;;1.25;;
61085;SDS011;46967;48.876;2.136;2022-07-01T05:36:08;2.88;;;0.50;;
61085;SDS011;46967;48.876;2.136;2022-07-01T05:38:35;2.78;;;0.85;;
61085;SDS011;46967;48.876;2.136;2022-07-01T05:41:00;4.57;;;0.80;;
61085;SDS011;46967;48.876;2.136;2022-07-01T05:43:25;3.25;;;0.88;;
61085;SDS011;46967;48.876;2.136;2022-07-01T05:45:51;8.95;;;0.73;;
61085;SDS011;46967;48.876;2.136;2022-07-01T05:48:16;6.88;;;0.80;;
61085;SDS011;46967;48.876;2.136;2022-07-01T05:50:41;3.22;;;0.80;;
61085;SDS011;46967;48.876;2.136;2022-07-01T05:53:08;3.67;;;0.80;;
61085;SDS011;46967;48.876;2.136;2022-07-01T05:55:34;7.75;;;0.77;;
61085;SDS011;46967;48.876;2.136;2022-07-01T05:57:59;8.40;;;0.68;;
61085;SDS011;46967;48.876;2.136;2022-07-01T06:00:26;6.10;;;0.93;;
61085;SDS011;46967;48.876;2.136;2022-07-01T06:02:52;3.75;;;0.75;;
61085;SDS011;46967;48.876;2.136;2022-07-01T06:05:17;5.53;;;0.80;;
61085;SDS011;46967;48.876;2.136;2022-07-01T06:07:43;2.88;;;0.60;;
61085;SDS011;46967;48.876;2.136;2022-07-01T06:10:08;8.23;;;0.93;;
61085;SDS011;46967;48.876;2.136;2022-07-01T06:12:37;8.20;;;1.33;;
61085;SDS011;46967;48.876;2.136;2022-07-01T06:15:04;3.13;;;0.90;;
61085;SDS011;46967;48.876;2.136;2022-07-01T06:17:33;7.03;;;0.85;;
61085;SDS011;46967;48.876;2.136;2022-07-01T06:20:03;7.28;;;0.98;;
61085;SDS011;46967;48.876;2.136;2022-07-01T06:22:28;6.55;;;1.80;;
61085;SDS011;46967;48.876;2.136;2022-07-01T06:24:54;6.75;;;0.70;;
61085;SDS011;46967;48.876;2.136;2022-07-01T06:27:19;5.95;;;1.00;;
61085;SDS011;46967;48.876;2.136;2022-07-01T06:29:44;6.07;;;1.42;;
61085;SDS011;46967;48.876;2.136;2022-07-01T06:32:10;3.67;;;0.70;;
61085;SDS011;46967;48.876;2.136;2022-07-01T06:34:36;5.82;;;0.85;;
61085;SDS011;46967;48.876;2.136;2022-07-01T06:37:01;7.70;;;0.77;;
61085;SDS011;46967;48.876;2.136;2022-07-01T06:39:28;7.25;;;1.00;;
61085;SDS011;46967;48.876;2.136;2022-07-01T06:41:54;6.53;;;1.38;;
61085;SDS011;46967;48.876;2.136;2022-07-01T06:44:20;6.28;;;1.30;;
61085;SDS011;46967;48.876;2.136;2022-07-01T06:46:45;8.70;;;0.80;;
61085;SDS011;46967;48.876;2.136;2022-07-01T06:49:11;7.85;;;0.70;;
61085;SDS011;46967;48.876;2.136;2022-07-01T06:51:36;7.10;;;0.80;;
61085;SDS011;46967;48.876;2.136;2022-07-01T06:54:02;7.95;;;0.70;;
61085;SDS011;46967;48.876;2.136;2022-07-01T06:56:27;5.13;;;0.60;;
61085;SDS011;46967;48.876;2.136;2022-07-01T06:58:53;3.55;;;0.80;;
61085;SDS011;46967;48.876;2.136;2022-07-01T07:01:18;7.43;;;0.85;;
61085;SDS011;46967;48.876;2.136;2022-07-01T07:03:43;3.85;;;0.73;;
61085;SDS011;46967;48.876;2.136;2022-07-01T07:06:09;4.93;;;0.70;;
61085;SDS011;46967;48.876;2.136;2022-07-01T07:08:34;7.45;;;1.65;;
61085;SDS011;46967;48.876;2.136;2022-07-01T07:10:59;6.15;;;1.70;;
61085;SDS011;46967;48.876;2.136;2022-07-01T07:13:25;5.88;;;0.98;;
61085;SDS011;46967;48.876;2.136;2022-07-01T07:15:51;2.33;;;0.65;;
61085;SDS011;46967;48.876;2.136;2022-07-01T07:18:16;3.28;;;0.60;;
61085;SDS011;46967;48.876;2.136;2022-07-01T07:20:42;4.05;;;0.68;;
61085;SDS011;46967;48.876;2.136;2022-07-01T07:23:07;4.47;;;0.60;;
61085;SDS011;46967;48.876;2.136;2022-07-01T07:25:33;5.00;;;0.65;;
61085;SDS011;46967;48.876;2.136;2022-07-01T07:27:58;5.32;;;0.55;;
61085;SDS011;46967;48.876;2.136;2022-07-01T07:30:24;5.00;;;0.75;;
61085;SDS011;46967;48.876;2.136;2022-07-01T07:32:49;5.68;;;0.70;;
61085;SDS011;46967;48.876;2.136;2022-07-01T07:35:15;4.78;;;0.55;;
61085;SDS011;46967;48.876;2.136;2022-07-01T07:37:40;3.70;;;0.65;;
61085;SDS011;46967;48.876;2.136;2022-07-01T07:40:07;8.30;;;0.77;;
61085;SDS011;46967;48.876;2.136;2022-07-01T07:42:37;3.20;;;0.68;;
61085;SDS011;46967;48.876;2.136;2022-07-01T07:45:04;2.70;;;0.47;;
61085;SDS011;46967;48.876;2.136;2022-07-01T07:47:31;1.45;;;0.43;;
61085;SDS011;46967;48.876;2.136;2022-07-01T07:49:57;4.55;;;0.90;;
61085;SDS011;46967;48.876;2.136;2022-07-01T07:52:23;3.67;;;0.82;;
61085;SDS011;46967;48.876;2.136;2022-07-01T07:54:48;6.47;;;0.70;;
61085;SDS011;46967;48.876;2.136;2022-07-01T07:57:13;4.78;;;0.50;;
61085;SDS011;46967;48.876;2.136;2022-07-01T07:59:39;5.38;;;0.77;;
61085;SDS011;46967;48.876;2.136;2022-07-01T08:02:04;1.98;;;0.70;;
61085;SDS011;46967;48.876;2.136;2022-07-01T08:04:29;1.67;;;0.50;;
61085;SDS011;46967;48.876;2.136;2022-07-01T08:06:55;1.27;;;0.50;;
61085;SDS011;46967;48.876;2.136;2022-07-01T08:09:20;3.95;;;0.70;;
61085;SDS011;46967;48.876;2.136;2022-07-01T08:11:46;5.25;;;0.77;;
61085;SDS011;46967;48.876;2.136;2022-07-01T08:14:11;2.03;;;0.93;;
61085;SDS011;46967;48.876;2.136;2022-07-01T08:16:37;3.33;;;1.17;;
61085;SDS011;46967;48.876;2.136;2022-07-01T08:19:02;4.20;;;0.95;;
61085;SDS011;46967;48.876;2.136;2022-07-01T08:21:28;8.10;;;1.20;;
61085;SDS011;46967;48.876;2.136;2022-07-01T08:23:54;7.25;;;0.80;;
61085;SDS011;46967;48.876;2.136;2022-07-01T08:26:20;14.32;;;1.00;;
61085;SDS011;46967;48.876;2.136;2022-07-01T08:28:45;4.90;;;0.75;;
61085;SDS011;46967;48.876;2.136;2022-07-01T08:31:11;2.03;;;0.73;;
61085;SDS011;46967;48.876;2.136;2022-07-01T08:33:37;4.65;;;0.65;;
61085;SDS011;46967;48.876;2.136;2022-07-01T08:36:03;1.40;;;0.63;;
61085;SDS011;46967;48.876;2.136;2022-07-01T08:38:29;4.65;;;0.70;;
61085;SDS011;46967;48.876;2.136;2022-07-01T08:40:55;5.70;;;1.10;;
61085;SDS011;46967;48.876;2.136;2022-07-01T08:43:20;1.38;;;0.30;;
61085;SDS011;46967;48.876;2.136;2022-07-01T08:45:45;4.18;;;0.70;;
61085;SDS011;46967;48.876;2.136;2022-07-01T08:48:11;2.17;;;0.52;;
61085;SDS011;46967;48.876;2.136;2022-07-01T08:50:38;2.10;;;0.47;;
61085;SDS011;46967;48.876;2.136;2022-07-01T08:53:06;7.88;;;0.77;;
61085;SDS011;46967;48.876;2.136;2022-07-01T08:55:32;5.40;;;0.70;;
61085;SDS011;46967;48.876;2.136;2022-07-01T08:58:19;3.25;;;0.60;;
61085;SDS011;46967;48.876;2.136;2022-07-01T09:00:48;2.25;;;0.60;;
61085;SDS011;46967;48.876;2.136;2022-07-01T09:03:13;2.28;;;0.77;;
61085;SDS011;46967;48.876;2.136;2022-07-01T09:05:39;1.50;;;0.40;;
61085;SDS011;46967;48.876;2.136;2022-07-01T09:08:12;3.88;;;0.45;;
61085;SDS011;46967;48.876;2.136;2022-07-01T09:10:38;2.42;;;0.73;;
61085;SDS011;46967;48.876;2.136;2022-07-01T09:13:04;4.18;;;0.73;;
61085;SDS011;46967;48.876;2.136;2022-07-01T09:15:32;5.25;;;0.63;;
61085;SDS011;46967;48.876;2.136;2022-07-01T09:18:15;4.20;;;0.60;;
61085;SDS011;46967;48.876;2.136;2022-07-01T09:20:47;4.35;;;0.77;;
61085;SDS011;46967;48.876;2.136;2022-07-01T09:23:14;3.83;;;0.57;;
61085;SDS011;46967;48.876;2.136;2022-07-01T09:25:41;2.38;;;0.40;;
61085;SDS011;46967;48.876;2.136;2022-07-01T09:30:38;5.13;;;0.50;;
61085;SDS011;46967;48.876;2.136;2022-07-01T09:33:06;1.98;;;0.40;;
61085;SDS011;46967;48.876;2.136;2022-07-01T09:35:37;4.35;;;0.50;;
61085;SDS011;46967;48.876;2.136;2022-07-01T09:38:04;3.47;;;0.70;;
61085;SDS011;46967;48.876;2.136;2022-07-01T09:43:19;3.03;;;0.38;;
61085;SDS011;46967;48.876;2.136;2022-07-01T09:48:26;1.90;;;0.32;;
61085;SDS011;46967;48.876;2.136;2022-07-01T09:51:12;2.78;;;0.40;;
61085;SDS011;46967;48.876;2.136;2022-07-01T09:53:39;3.22;;;0.55;;
61085;SDS011;46967;48.876;2.136;2022-07-01T09:56:05;2.42;;;0.40;;
61085;SDS011;46967;48.876;2.136;2022-07-01T09:58:30;5.57;;;0.57;;
61085;SDS011;46967;48.876;2.136;2022-07-01T10:01:00;3.90;;;0.30;;
61085;SDS011;46967;48.876;2.136;2022-07-01T10:03:27;2.13;;;0.40;;
61085;SDS011;46967;48.876;2.136;2022-07-01T10:08:58;6.05;;;0.40;;
61085;SDS011;46967;48.876;2.136;2022-07-01T10:14:17;1.60;;;0.25;;
61085;SDS011;46967;48.876;2.136;2022-07-01T10:16:46;4.68;;;0.52;;
61085;SDS011;46967;48.876;2.136;2022-07-01T10:21:45;3.00;;;0.57;;
61085;SDS011;46967;48.876;2.136;2022-07-01T10:24:11;3.80;;;0.43;;
61085;SDS011;46967;48.876;2.136;2022-07-01T10:26:37;2.08;;;0.30;;
61085;SDS011;46967;48.876;2.136;2022-07-01T10:29:02;3.35;;;0.70;;
61085;SDS011;46967;48.876;2.136;2022-07-01T10:31:37;2.55;;;0.52;;
61085;SDS011;46967;48.876;2.136;2022-07-01T10:34:03;1.98;;;0.75;;
61085;SDS011;46967;48.876;2.136;2022-07-01T10:39:08;0.93;;;0.40;;
61085;SDS011;46967;48.876;2.136;2022-07-01T10:41:56;2.75;;;0.30;;
61085;SDS011;46967;48.876;2.136;2022-07-01T10:44:22;1.58;;;0.40;;
61085;SDS011;46967;48.876;2.136;2022-07-01T10:46:50;0.95;;;0.15;;
61085;SDS011;46967;48.876;2.136;2022-07-01T10:59:40;1.38;;;0.20;;
61085;SDS011;46967;48.876;2.136;2022-07-01T11:02:10;1.48;;;0.50;;
61085;SDS011;46967;48.876;2.136;2022-07-01T11:04:37;2.50;;;0.50;;
61085;SDS011;46967;48.876;2.136;2022-07-01T11:07:03;3.67;;;0.55;;
61085;SDS011;46967;48.876;2.136;2022-07-01T11:09:28;5.85;;;0.70;;
61085;SDS011;46967;48.876;2.136;2022-07-01T11:11:54;1.38;;;0.50;;
61085;SDS011;46967;48.876;2.136;2022-07-01T11:14:19;2.92;;;0.40;;
61085;SDS011;46967;48.876;2.136;2022-07-01T11:16:44;1.90;;;0.75;;
61085;SDS011;46967;48.876;2.136;2022-07-01T11:19:10;2.60;;;0.30;;
61085;SDS011;46967;48.876;2.136;2022-07-01T11:21:35;5.07;;;0.57;;
61085;SDS011;46967;48.876;2.136;2022-07-01T11:24:00;2.08;;;0.35;;
61085;SDS011;46967;48.876;2.136;2022-07-01T11:26:26;2.85;;;0.35;;
61085;SDS011;46967;48.876;2.136;2022-07-01T11:28:51;1.67;;;0.40;;
61085;SDS011;46967;48.876;2.136;2022-07-01T11:31:26;0.88;;;0.20;;
61085;SDS011;46967;48.876;2.136;2022-07-01T11:33:55;2.58;;;0.30;;
61085;SDS011;46967;48.876;2.136;2022-07-01T11:36:20;2.58;;;0.40;;
61085;SDS011;46967;48.876;2.136;2022-07-01T11:39:04;0.93;;;0.30;;
61085;SDS011;46967;48.876;2.136;2022-07-01T11:41:55;0.70;;;0.20;;
61085;SDS011;46967;48.876;2.136;2022-07-01T11:44:55;3.22;;;0.65;;
61085;SDS011;46967;48.876;2.136;2022-07-01T11:47:22;2.33;;;0.40;;
61085;SDS011;46967;48.876;2.136;2022-07-01T11:49:49;2.25;;;0.77;;
61085;SDS011;46967;48.876;2.136;2022-07-01T11:52:18;1.67;;;0.25;;
61085;SDS011;46967;48.876;2.136;2022-07-01T11:54:46;2.00;;;0.40;;
61085;SDS011;46967;48.876;2.136;2022-07-01T11:57:14;3.47;;;0.95;;
61085;SDS011;46967;48.876;2.136;2022-07-01T11:59:53;2.13;;;0.47;;
61085;SDS011;46967;48.876;2.136;2022-07-01T12:02:20;1.38;;;0.50;;
61085;SDS011;46967;48.876;2.136;2022-07-01T12:04:47;1.05;;;0.32;;
61085;SDS011;46967;48.876;2.136;2022-07-01T12:07:14;3.65;;;0.73;;
61085;SDS011;46967;48.876;2.136;2022-07-01T12:09:40;2.92;;;0.50;;
61085;SDS011;46967;48.876;2.136;2022-07-01T12:12:06;2.17;;;0.43;;
61085;SDS011;46967;48.876;2.136;2022-07-01T12:14:39;1.48;;;0.13;;
61085;SDS011;46967;48.876;2.136;2022-07-01T12:17:05;3.35;;;0.30;;
61085;SDS011;46967;48.876;2.136;2022-07-01T12:22:03;0.35;;;0.15;;
61085;SDS011;46967;48.876;2.136;2022-07-01T12:24:30;3.00;;;0.25;;
61085;SDS011;46967;48.876;2.136;2022-07-01T12:29:25;3.40;;;0.47;;
61085;SDS011;46967;48.876;2.136;2022-07-01T12:34:21;1.85;;;0.40;;
61085;SDS011;46967;48.876;2.136;2022-07-01T12:36:47;1.85;;;0.25;;
61085;SDS011;46967;48.876;2.136;2022-07-01T12:39:13;5.47;;;0.60;;
61085;SDS011;46967;48.876;2.136;2022-07-01T12:41:38;5.05;;;0.32;;
61085;SDS011;46967;48.876;2.136;2022-07-01T12:46:49;1.85;;;0.40;;
61085;SDS011;46967;48.876;2.136;2022-07-01T12:49:18;3.35;;;0.57;;
61085;SDS011;46967;48.876;2.136;2022-07-01T12:51:45;1.65;;;0.40;;
61085;SDS011;46967;48.876;2.136;2022-07-01T12:54:27;3.10;;;0.30;;
61085;SDS011;46967;48.876;2.136;2022-07-01T12:56:57;4.28;;;0.38;;
61085;SDS011;46967;48.876;2.136;2022-07-01T12:59:22;1.42;;;0.40;;
61085;SDS011;46967;48.876;2.136;2022-07-01T13:01:48;2.00;;;0.30;;
61085;SDS011;46967;48.876;2.136;2022-07-01T13:04:13;1.83;;;0.38;;
61085;SDS011;46967;48.876;2.136;2022-07-01T13:06:38;1.15;;;0.30;;
61085;SDS011;46967;48.876;2.136;2022-07-01T13:09:05;0.73;;;0.20;;
61085;SDS011;46967;48.876;2.136;2022-07-01T13:11:30;1.30;;;0.20;;
61085;SDS011;46967;48.876;2.136;2022-07-01T13:13:55;2.38;;;0.32;;
61085;SDS011;46967;48.876;2.136;2022-07-01T13:16:21;4.07;;;0.32;;
61085;SDS011;46967;48.876;2.136;2022-07-01T13:18:46;1.52;;;0.30;;
61085;SDS011;46967;48.876;2.136;2022-07-01T13:21:11;1.42;;;0.40;;
61085;SDS011;46967;48.876;2.136;2022-07-01T13:23:37;3.10;;;0.47;;
61085;SDS011;46967;48.876;2.136;2022-07-01T13:26:02;1.33;;;0.30;;
61085;SDS011;46967;48.876;2.136;2022-07-01T13:28:28;1.15;;;0.40;;
61085;SDS011;46967;48.876;2.136;2022-07-01T13:30:53;1.25;;;0.30;;
61085;SDS011;46967;48.876;2.136;2022-07-01T13:33:19;2.75;;;0.28;;
61085;SDS011;46967;48.876;2.136;2022-07-01T13:35:44;1.75;;;0.38;;
61085;SDS011;46967;48.876;2.136;2022-07-01T13:38:10;2.22;;;0.35;;
61085;SDS011;46967;48.876;2.136;2022-07-01T13:40:35;1.13;;;0.30;;
61085;SDS011;46967;48.876;2.136;2022-07-01T13:43:00;1.73;;;0.30;;
61085;SDS011;46967;48.876;2.136;2022-07-01T13:45:26;4.88;;;0.43;;
61085;SDS011;46967;48.876;2.136;2022-07-01T13:47:52;2.38;;;0.30;;
61085;SDS011;46967;48.876;2.136;2022-07-01T13:50:18;0.98;;;0.40;;
61085;SDS011;46967;48.876;2.136;2022-07-01T13:52:45;2.05;;;0.30;;
61085;SDS011;46967;48.876;2.136;2022-07-01T13:55:13;2.33;;;0.40;;
61085;SDS011;46967;48.876;2.136;2022-07-01T13:57:38;2.30;;;0.20;;
61085;SDS011;46967;48.876;2.136;2022-07-01T14:00:04;5.28;;;0.30;;
61085;SDS011;46967;48.876;2.136;2022-07-01T14:02:30;1.30;;;0.32;;
61085;SDS011;46967;48.876;2.136;2022-07-01T14:04:57;0.95;;;0.20;;
61085;SDS011;46967;48.876;2.136;2022-07-01T14:07:22;0.98;;;0.30;;
61085;SDS011;46967;48.876;2.136;2022-07-01T14:09:47;2.25;;;0.40;;
61085;SDS011;46967;48.876;2.136;2022-07-01T14:12:13;1.15;;;0.20;;
61085;SDS011;46967;48.876;2.136;2022-07-01T14:14:40;0.80;;;0.20;;
61085;SDS011;46967;48.876;2.136;2022-07-01T14:17:05;2.28;;;0.30;;
61085;SDS011;46967;48.876;2.136;2022-07-01T14:19:31;5.38;;;0.43;;
61085;SDS011;46967;48.876;2.136;2022-07-01T14:21:56;2.97;;;0.40;;
61085;SDS011;46967;48.876;2.136;2022-07-01T14:24:24;2.38;;;0.28;;
61085;SDS011;46967;48.876;2.136;2022-07-01T14:26:49;1.92;;;0.40;;
61085;SDS011;46967;48.876;2.136;2022-07-01T14:29:15;1.23;;;0.10;;
61085;SDS011;46967;48.876;2.136;2022-07-01T14:31:40;0.68;;;0.28;;
61085;SDS011;46967;48.876;2.136;2022-07-01T14:34:05;0.80;;;0.35;;
61085;SDS011;46967;48.876;2.136;2022-07-01T14:36:31;0.85;;;0.30;;
61085;SDS011;46967;48.876;2.136;2022-07-01T14:38:56;1.50;;;0.35;;
61085;SDS011;46967;48.876;2.136;2022-07-01T14:41:21;1.73;;;0.20;;
61085;SDS011;46967;48.876;2.136;2022-07-01T14:43:47;2.47;;;0.38;;
61085;SDS011;46967;48.876;2.136;2022-07-01T14:46:12;0.65;;;0.20;;
61085;SDS011;46967;48.876;2.136;2022-07-01T14:48:39;2.95;;;0.40;;
61085;SDS011;46967;48.876;2.136;2022-07-01T14:51:05;1.70;;;0.30;;
61085;SDS011;46967;48.876;2.136;2022-07-01T14:53:31;1.00;;;0.28;;
61085;SDS011;46967;48.876;2.136;2022-07-01T14:55:57;0.38;;;0.13;;
61085;SDS011;46967;48.876;2.136;2022-07-01T14:58:22;0.80;;;0.20;;
61085;SDS011;46967;48.876;2.136;2022-07-01T15:00:48;1.40;;;0.63;;
61085;SDS011;46967;48.876;2.136;2022-07-01T15:03:13;0.52;;;0.17;;
61085;SDS011;46967;48.876;2.136;2022-07-01T15:05:39;1.88;;;0.25;;
61085;SDS011;46967;48.876;2.136;2022-07-01T15:08:05;0.68;;;0.30;;
61085;SDS011;46967;48.876;2.136;2022-07-01T15:10:31;1.67;;;0.30;;
61085;SDS011;46967;48.876;2.136;2022-07-01T15:12:56;1.48;;;0.30;;
61085;SDS011;46967;48.876;2.136;2022-07-01T15:15:21;2.95;;;0.30;;
61085;SDS011;46967;48.876;2.136;2022-07-01T15:17:46;1.55;;;0.50;;
61085;SDS011;46967;48.876;2.136;2022-07-01T15:20:13;0.50;;;0.30;;
61085;SDS011;46967;48.876;2.136;2022-07-01T15:22:40;0.77;;;0.35;;
61085;SDS011;46967;48.876;2.136;2022-07-01T15:25:06;0.80;;;0.28;;